createdAt,value
2023-01-13T00:00:21.330Z,76.93
2023-01-13T00:01:21.273Z,76.53
2023-01-13T00:02:21.284Z,76.97
2023-01-13T00:03:21.270Z,77.04
2023-01-13T00:04:21.256Z,77.25
2023-01-13T00:05:21.244Z,77.48
2023-01-13T00:06:21.253Z,77.59
2023-01-13T00:07:21.215Z,76.87
2023-01-13T00:08:21.212Z,77.08
2023-01-13T00:09:21.187Z,76.73
2023-01-13T00:10:21.181Z,76.73
2023-01-13T00:11:21.169Z,76.53
2023-01-13T00:12:21.160Z,76.12
2023-01-13T00:13:21.159Z,76.53
2023-01-13T00:14:21.144Z,75.71
2023-01-13T00:15:21.135Z,75.37
2023-01-13T00:16:21.248Z,76.09
2023-01-13T00:17:21.109Z,75.37
2023-01-13T00:18:21.106Z,75.37
2023-01-13T00:19:21.080Z,75.57
2023-01-13T00:20:21.087Z,75.98
2023-01-13T00:21:21.090Z,75.78
2023-01-13T00:22:21.046Z,76.39
2023-01-13T00:23:21.046Z,76.32
2023-01-13T00:24:21.027Z,76.43
2023-01-13T00:25:21.017Z,76.43
2023-01-13T00:26:21.024Z,76.12
2023-01-13T00:27:21.006Z,75.82
2023-01-13T00:28:21.022Z,76.09
2023-01-13T00:29:21.025Z,75.68
2023-01-13T00:30:20.970Z,75.78
2023-01-13T00:31:21.145Z,75.88
2023-01-13T00:32:20.947Z,76.32
2023-01-13T00:33:20.945Z,75.31
2023-01-13T00:34:20.948Z,75.88
2023-01-13T00:35:20.933Z,75.88
2023-01-13T00:36:20.905Z,75.98
2023-01-13T00:37:20.921Z,75.98
2023-01-13T00:38:20.891Z,76.32
2023-01-13T00:39:20.873Z,76.32
2023-01-13T00:40:20.865Z,76.12
2023-01-13T00:41:20.866Z,76.43
2023-01-13T00:42:20.832Z,76.63
2023-01-13T00:43:20.867Z,76.63
2023-01-13T00:44:20.813Z,76.53
2023-01-13T00:45:20.801Z,76.73
2023-01-13T00:46:20.843Z,76.12
2023-01-13T00:47:20.801Z,76.84
2023-01-13T00:48:20.778Z,76.32
2023-01-13T00:49:20.765Z,76.12
2023-01-13T00:50:20.783Z,75.57
2023-01-13T00:51:20.773Z,76.09
2023-01-13T00:52:20.720Z,75.27
2023-01-13T00:53:20.740Z,75.57
2023-01-13T00:54:20.707Z,75.78
2023-01-13T00:55:20.686Z,75.57
2023-01-13T00:56:34.182Z,75.88
2023-01-13T00:57:21.689Z,75.37
2023-01-13T00:58:20.670Z,75.78
2023-01-13T00:59:20.643Z,76.09
2023-01-13T01:00:20.638Z,75.98
2023-01-13T01:01:20.755Z,75.88
2023-01-13T01:02:20.753Z,75.88
2023-01-13T01:03:20.617Z,75.48
2023-01-13T01:04:20.615Z,75.78
2023-01-13T01:05:20.612Z,75.78
2023-01-13T01:06:20.579Z,75.98
2023-01-13T01:07:20.582Z,76.59
2023-01-13T01:08:20.548Z,76.73
2023-01-13T01:09:20.583Z,77.04
2023-01-13T01:10:20.522Z,77.55
2023-01-13T01:11:20.539Z,77.14
2023-01-13T01:12:20.515Z,77.25
2023-01-13T01:13:20.508Z,77.04
2023-01-13T01:14:20.505Z,77.25
2023-01-13T01:15:20.482Z,77.14
2023-01-13T01:16:20.491Z,77.55
2023-01-13T01:17:20.458Z,77.96
2023-01-13T01:18:20.475Z,77.14
2023-01-13T01:19:20.465Z,77.04
2023-01-13T01:20:20.422Z,77.34
2023-01-13T01:21:20.436Z,77.86
2023-01-13T01:22:20.395Z,78.06
2023-01-13T01:23:20.384Z,77.86
2023-01-13T01:24:20.391Z,77.79
2023-01-13T01:25:20.391Z,77.86
2023-01-13T01:26:20.356Z,78.16
2023-01-13T01:27:20.362Z,78.61
2023-01-13T01:28:20.367Z,78.09
2023-01-13T01:29:20.353Z,78.06
2023-01-13T01:30:20.314Z,78.50
2023-01-13T01:31:20.389Z,78.71
2023-01-13T01:32:20.294Z,78.91
2023-01-13T01:33:20.293Z,79.02
2023-01-13T01:34:20.280Z,78.27
2023-01-13T01:35:20.275Z,78.16
2023-01-13T01:36:20.258Z,78.57
2023-01-13T01:37:20.250Z,78.57
2023-01-13T01:38:20.272Z,78.61
2023-01-13T01:39:20.220Z,78.27
2023-01-13T01:40:20.203Z,78.91
2023-01-13T01:41:20.214Z,78.27
2023-01-13T01:42:20.178Z,78.91
2023-01-13T01:43:20.192Z,79.12
2023-01-13T01:44:20.157Z,79.12
2023-01-13T01:45:20.165Z,80.14
2023-01-13T01:46:20.209Z,80.58
2023-01-13T01:47:20.140Z,80.89
2023-01-13T01:48:20.133Z,80.24
2023-01-13T01:49:20.109Z,79.83
2023-01-13T01:50:20.130Z,79.43
2023-01-13T01:51:20.096Z,79.43
2023-01-13T01:52:20.070Z,79.22
2023-01-13T01:53:20.078Z,79.73
2023-01-13T01:54:20.059Z,79.22
2023-01-13T01:55:20.060Z,79.32
2023-01-13T01:56:20.049Z,80.04
2023-01-13T01:57:20.051Z,79.43
2023-01-13T01:58:20.031Z,79.73
2023-01-13T01:59:20.008Z,80.18
2023-01-13T02:00:19.989Z,79.43
2023-01-13T02:01:20.141Z,79.32
2023-01-13T02:02:19.987Z,80.65
2023-01-13T02:03:20.020Z,80.79
2023-01-13T02:04:19.959Z,80.55
2023-01-13T02:05:19.936Z,80.85
2023-01-13T02:06:19.927Z,80.48
2023-01-13T02:07:19.957Z,81.16
2023-01-13T02:08:19.915Z,81.10
2023-01-13T02:09:19.899Z,81.10
2023-01-13T02:10:19.884Z,80.24
2023-01-13T02:11:19.883Z,80.28
2023-01-13T02:12:19.858Z,80.38
2023-01-13T02:13:19.898Z,80.65
2023-01-13T02:14:19.852Z,80.58
2023-01-13T02:15:19.846Z,80.69
2023-01-13T02:16:19.882Z,80.99
2023-01-13T02:17:19.804Z,80.99
2023-01-13T02:18:19.815Z,81.10
2023-01-13T02:19:19.788Z,80.58
2023-01-13T02:20:19.773Z,81.30
2023-01-13T02:21:19.773Z,81.20
2023-01-13T02:22:19.799Z,81.30
2023-01-13T02:23:19.771Z,82.12
2023-01-13T02:24:19.729Z,81.30
2023-01-13T02:25:19.726Z,81.81
2023-01-13T02:26:19.725Z,82.53
2023-01-13T02:27:19.694Z,82.15
2023-01-13T02:28:19.727Z,82.36
2023-01-13T02:29:19.701Z,82.36
2023-01-13T02:30:19.661Z,81.81
2023-01-13T02:31:19.736Z,82.32
2023-01-13T02:32:19.639Z,82.56
2023-01-13T02:33:19.650Z,81.91
2023-01-13T02:34:19.619Z,82.01
2023-01-13T02:35:19.610Z,81.91
2023-01-13T02:36:19.624Z,81.91
2023-01-13T02:37:19.591Z,81.81
2023-01-13T02:38:19.587Z,81.91
2023-01-13T02:39:19.569Z,81.74
2023-01-13T02:40:19.553Z,82.42
2023-01-13T02:41:19.540Z,82.53
2023-01-13T02:42:19.560Z,81.91
2023-01-13T02:43:19.536Z,82.05
2023-01-13T02:44:19.516Z,82.12
2023-01-13T02:45:19.515Z,81.81
2023-01-13T02:46:19.495Z,82.01
2023-01-13T02:47:19.509Z,81.81
2023-01-13T02:48:19.507Z,81.60
2023-01-13T02:49:19.457Z,81.40
2023-01-13T02:50:19.453Z,81.71
2023-01-13T02:51:19.445Z,82.32
2023-01-13T02:52:19.443Z,82.22
2023-01-13T02:53:19.436Z,82.01
2023-01-13T02:54:19.414Z,82.32
2023-01-13T02:55:19.399Z,82.22
2023-01-13T02:56:19.379Z,82.63
2023-01-13T02:57:19.368Z,82.97
2023-01-13T02:58:19.429Z,82.77
2023-01-13T02:59:19.338Z,82.42
2023-01-13T03:00:19.306Z,82.12
2023-01-13T03:01:19.462Z,82.63
2023-01-13T03:02:19.581Z,81.91
2023-01-13T03:03:19.305Z,82.32
2023-01-13T03:04:19.284Z,82.46
2023-01-13T03:05:19.260Z,81.81
2023-01-13T03:06:19.244Z,82.01
2023-01-13T03:07:19.236Z,81.91
2023-01-13T03:08:19.326Z,82.12
2023-01-13T03:09:19.226Z,82.42
2023-01-13T03:10:19.216Z,82.22
2023-01-13T03:11:19.207Z,82.67
2023-01-13T03:12:19.192Z,82.22
2023-01-13T03:13:19.184Z,82.67
2023-01-13T03:14:19.200Z,82.46
2023-01-13T03:15:19.169Z,82.67
2023-01-13T03:16:19.176Z,82.56
2023-01-13T03:17:19.150Z,82.36
2023-01-13T03:18:19.136Z,82.36
2023-01-13T03:19:19.103Z,81.91
2023-01-13T03:20:19.105Z,82.42
2023-01-13T03:21:19.082Z,82.67
2023-01-13T03:22:19.079Z,82.77
2023-01-13T03:23:19.098Z,83.07
2023-01-13T03:24:19.081Z,82.97
2023-01-13T03:25:19.051Z,82.46
2023-01-13T03:26:19.022Z,82.67
2023-01-13T03:27:19.027Z,82.32
2023-01-13T03:28:19.102Z,82.42
2023-01-13T03:29:18.997Z,82.53
2023-01-13T03:30:18.988Z,82.63
2023-01-13T03:31:19.010Z,82.67
2023-01-13T03:32:18.967Z,82.53
2023-01-13T03:33:19.021Z,82.56
2023-01-13T03:34:18.965Z,82.67
2023-01-13T03:35:18.947Z,82.67
2023-01-13T03:36:18.932Z,82.36
2023-01-13T03:37:18.939Z,82.67
2023-01-13T03:38:18.925Z,82.67
2023-01-13T03:39:18.941Z,82.67
2023-01-13T03:40:18.917Z,82.46
2023-01-13T03:41:18.923Z,82.36
2023-01-13T03:42:18.856Z,82.87
2023-01-13T03:43:18.914Z,82.77
2023-01-13T03:44:18.840Z,83.07
2023-01-13T03:45:18.834Z,82.56
2023-01-13T03:46:18.893Z,82.97
2023-01-13T03:47:18.815Z,83.07
2023-01-13T03:48:18.818Z,83.18
2023-01-13T03:49:18.816Z,82.97
2023-01-13T03:50:18.795Z,82.97
2023-01-13T03:51:18.769Z,84.00
2023-01-13T03:52:18.776Z,83.89
2023-01-13T03:53:18.740Z,83.93
2023-01-13T03:54:18.767Z,83.38
2023-01-13T03:55:18.741Z,84.00
2023-01-13T03:56:18.700Z,82.87
2023-01-13T03:57:18.721Z,82.97
2023-01-13T03:58:18.724Z,82.56
2023-01-13T03:59:18.722Z,82.97
2023-01-13T04:00:18.655Z,82.87
2023-01-13T04:01:18.746Z,83.28
2023-01-13T04:02:18.705Z,83.28
2023-01-13T04:03:18.644Z,82.87
2023-01-13T04:04:18.653Z,82.87
2023-01-13T04:05:18.627Z,82.97
2023-01-13T04:06:18.630Z,82.87
2023-01-13T04:07:18.654Z,82.97
2023-01-13T04:08:18.581Z,82.46
2023-01-13T04:09:18.594Z,82.67
2023-01-13T04:10:18.562Z,82.87
2023-01-13T04:11:18.558Z,83.28
2023-01-13T04:12:18.539Z,82.97
2023-01-13T04:13:18.563Z,83.07
2023-01-13T04:14:18.533Z,83.07
2023-01-13T04:15:18.506Z,82.46
2023-01-13T04:16:18.499Z,82.67
2023-01-13T04:17:18.492Z,82.15
2023-01-13T04:18:18.469Z,82.63
2023-01-13T04:19:18.560Z,82.53
2023-01-13T04:20:18.478Z,82.56
2023-01-13T04:21:18.456Z,82.42
2023-01-13T04:22:18.457Z,82.53
2023-01-13T04:23:18.422Z,82.77
2023-01-13T04:24:18.419Z,82.77
2023-01-13T04:25:18.400Z,82.67
2023-01-13T04:26:18.382Z,82.97
2023-01-13T04:27:18.371Z,83.07
2023-01-13T04:28:18.386Z,82.87
2023-01-13T04:29:18.401Z,82.46
2023-01-13T04:30:18.343Z,82.56
2023-01-13T04:31:18.409Z,83.07
2023-01-13T04:32:18.347Z,82.67
2023-01-13T04:33:18.365Z,82.22
2023-01-13T04:34:18.306Z,82.42
2023-01-13T04:35:18.302Z,82.73
2023-01-13T04:36:18.262Z,82.53
2023-01-13T04:37:18.283Z,82.63
2023-01-13T04:38:18.276Z,82.97
2023-01-13T04:39:18.270Z,83.48
2023-01-13T04:40:18.245Z,84.09
2023-01-13T04:41:18.261Z,83.18
2023-01-13T04:42:18.247Z,84.00
2023-01-13T04:43:18.248Z,83.69
2023-01-13T04:44:18.191Z,84.00
2023-01-13T04:45:18.226Z,83.93
2023-01-13T04:46:18.350Z,83.79
2023-01-13T04:47:18.158Z,83.89
2023-01-13T04:48:18.154Z,83.79
2023-01-13T04:49:18.149Z,84.34
2023-01-13T04:50:18.150Z,84.24
2023-01-13T04:51:18.111Z,84.30
2023-01-13T04:52:18.110Z,84.03
2023-01-13T04:53:18.106Z,84.44
2023-01-13T04:54:18.096Z,84.00
2023-01-13T04:55:18.073Z,84.00
2023-01-13T04:56:18.065Z,83.89
2023-01-13T04:57:18.049Z,84.00
2023-01-13T04:58:18.067Z,84.24
2023-01-13T04:59:18.092Z,84.75
2023-01-13T05:00:18.026Z,84.85
2023-01-13T05:01:18.126Z,84.95
2023-01-13T05:02:18.050Z,85.16
2023-01-13T05:03:17.982Z,84.65
2023-01-13T05:04:17.989Z,85.47
2023-01-13T05:05:17.959Z,85.47
2023-01-13T05:06:17.941Z,85.91
2023-01-13T05:07:17.934Z,85.16
2023-01-13T05:08:17.999Z,85.50
2023-01-13T05:09:17.959Z,85.71
2023-01-13T05:10:17.941Z,85.91
2023-01-13T05:11:17.915Z,85.91
2023-01-13T05:12:17.881Z,85.81
2023-01-13T05:13:17.874Z,86.22
2023-01-13T05:14:17.941Z,85.81
2023-01-13T05:15:18.026Z,85.91
2023-01-13T05:16:17.994Z,86.43
2023-01-13T05:17:17.829Z,86.53
2023-01-13T05:18:17.872Z,86.53
2023-01-13T05:19:17.854Z,86.12
2023-01-13T05:20:17.798Z,86.63
2023-01-13T05:21:17.808Z,86.32
2023-01-13T05:22:17.802Z,85.81
2023-01-13T05:23:17.833Z,85.91
2023-01-13T05:24:17.784Z,85.81
2023-01-13T05:25:17.806Z,86.02
2023-01-13T05:26:17.750Z,85.47
2023-01-13T05:27:17.741Z,85.88
2023-01-13T05:28:17.773Z,85.97
2023-01-13T05:29:17.708Z,85.88
2023-01-13T05:30:17.684Z,85.88
2023-01-13T05:31:17.797Z,85.97
2023-01-13T05:32:17.674Z,86.22
2023-01-13T05:33:17.659Z,86.53
2023-01-13T05:34:17.674Z,86.22
2023-01-13T05:35:17.774Z,86.02
2023-01-13T05:36:17.681Z,86.18
2023-01-13T05:37:17.659Z,85.88
2023-01-13T05:38:17.616Z,86.18
2023-01-13T05:39:17.610Z,86.02
2023-01-13T05:40:17.623Z,86.22
2023-01-13T05:41:17.653Z,86.32
2023-01-13T05:42:17.590Z,86.63
2023-01-13T05:43:17.574Z,86.94
2023-01-13T05:44:17.582Z,86.22
2023-01-13T05:45:17.546Z,86.53
2023-01-13T05:46:17.837Z,86.43
2023-01-13T05:47:17.512Z,86.63
2023-01-13T05:48:17.504Z,86.32
2023-01-13T05:49:17.529Z,86.73
2023-01-13T05:50:17.508Z,86.43
2023-01-13T05:51:17.479Z,86.32
2023-01-13T05:52:17.455Z,86.73
2023-01-13T05:53:17.495Z,86.53
2023-01-13T05:54:17.483Z,86.83
2023-01-13T05:55:17.437Z,87.35
2023-01-13T05:56:17.473Z,87.24
2023-01-13T05:57:17.422Z,87.14
2023-01-13T05:58:17.413Z,87.45
2023-01-13T05:59:17.473Z,87.24
2023-01-13T06:00:17.403Z,87.24
2023-01-13T06:01:17.444Z,87.04
2023-01-13T06:02:17.366Z,87.24
2023-01-13T06:03:17.446Z,87.96
2023-01-13T06:04:17.437Z,88.26
2023-01-13T06:05:17.326Z,88.17
2023-01-13T06:06:17.353Z,88.78
2023-01-13T06:07:17.325Z,88.68
2023-01-13T06:08:17.288Z,88.37
2023-01-13T06:09:17.294Z,87.85
2023-01-13T06:10:17.332Z,88.06
2023-01-13T06:11:17.273Z,88.17
2023-01-13T06:12:17.244Z,87.85
2023-01-13T06:13:17.270Z,87.96
2023-01-13T06:14:17.284Z,88.06
2023-01-13T06:15:17.212Z,88.47
2023-01-13T06:16:17.250Z,88.26
2023-01-13T06:17:17.215Z,88.47
2023-01-13T06:18:17.202Z,88.17
2023-01-13T06:19:17.189Z,88.06
2023-01-13T06:20:17.171Z,87.96
2023-01-13T06:21:17.163Z,88.26
2023-01-13T06:22:17.159Z,88.17
2023-01-13T06:23:17.164Z,88.68
2023-01-13T06:24:17.275Z,88.37
2023-01-13T06:25:17.122Z,88.06
2023-01-13T06:26:17.124Z,88.26
2023-01-13T06:27:17.176Z,87.96
2023-01-13T06:28:17.079Z,88.17
2023-01-13T06:29:17.112Z,88.68
2023-01-13T06:30:17.174Z,88.68
2023-01-13T06:31:17.091Z,88.47
2023-01-13T06:32:17.033Z,88.47
2023-01-13T06:33:17.074Z,88.53
2023-01-13T06:34:17.034Z,87.85
2023-01-13T06:35:17.040Z,88.12
2023-01-13T06:36:16.994Z,88.12
2023-01-13T06:37:17.015Z,88.26
2023-01-13T06:38:16.970Z,88.12
2023-01-13T06:39:16.998Z,88.12
2023-01-13T06:40:16.953Z,88.33
2023-01-13T06:41:16.943Z,88.57
2023-01-13T06:42:16.924Z,88.33
2023-01-13T06:43:17.386Z,88.64
2023-01-13T06:44:16.923Z,88.94
2023-01-13T06:45:16.912Z,88.68
2023-01-13T06:46:16.930Z,88.98
2023-01-13T06:47:16.898Z,88.47
2023-01-13T06:48:16.879Z,89.18
2023-01-13T06:49:16.860Z,88.68
2023-01-13T06:50:16.833Z,88.78
2023-01-13T06:51:16.839Z,89.29
2023-01-13T06:52:16.819Z,88.68
2023-01-13T06:53:16.808Z,89.90
2023-01-13T06:54:16.858Z,89.29
2023-01-13T06:55:16.807Z,89.50
2023-01-13T06:56:16.773Z,89.39
2023-01-13T06:57:16.763Z,90.00
2023-01-13T06:58:16.773Z,89.29
2023-01-13T06:59:16.772Z,90.21
2023-01-13T07:00:16.728Z,89.56
2023-01-13T07:01:16.920Z,89.25
2023-01-13T07:02:16.902Z,89.50
2023-01-13T07:03:16.727Z,89.70
2023-01-13T07:04:16.720Z,89.80
2023-01-13T07:05:16.676Z,90.00
2023-01-13T07:06:16.690Z,89.59
2023-01-13T07:07:16.688Z,89.70
2023-01-13T07:08:16.642Z,89.90
2023-01-13T07:09:16.678Z,89.90
2023-01-13T07:10:16.650Z,89.90
2023-01-13T07:11:16.612Z,90.11
2023-01-13T07:12:16.637Z,90.00
2023-01-13T07:13:16.653Z,90.62
2023-01-13T07:14:16.596Z,89.90
2023-01-13T07:15:16.602Z,89.80
2023-01-13T07:16:16.621Z,89.90
2023-01-13T07:17:16.572Z,89.90
2023-01-13T07:18:16.595Z,89.90
2023-01-13T07:19:16.630Z,90.21
2023-01-13T07:20:16.538Z,90.11
2023-01-13T07:21:16.522Z,89.25
2023-01-13T07:22:16.502Z,89.65
2023-01-13T07:23:16.490Z,89.90
2023-01-13T07:24:16.530Z,90.11
2023-01-13T07:25:16.469Z,90.21
2023-01-13T07:26:16.452Z,89.90
2023-01-13T07:27:16.451Z,90.27
2023-01-13T07:28:16.434Z,89.59
2023-01-13T07:29:16.493Z,89.56
2023-01-13T07:30:16.405Z,89.97
2023-01-13T07:31:16.489Z,89.90
2023-01-13T07:32:16.401Z,89.97
2023-01-13T07:33:16.392Z,89.65
2023-01-13T07:34:16.424Z,89.86
2023-01-13T07:35:16.349Z,89.97
2023-01-13T07:36:16.346Z,90.27
2023-01-13T07:37:16.331Z,89.56
2023-01-13T07:38:16.324Z,89.76
2023-01-13T07:39:16.504Z,89.97
2023-01-13T07:40:16.339Z,89.45
2023-01-13T07:41:16.295Z,89.97
2023-01-13T07:42:16.322Z,90.06
2023-01-13T07:43:16.298Z,90.27
2023-01-13T07:44:16.361Z,90.06
2023-01-13T07:45:16.257Z,90.06
2023-01-13T07:46:16.305Z,90.88
2023-01-13T07:47:16.231Z,91.39
2023-01-13T07:48:16.214Z,90.99
2023-01-13T07:49:16.247Z,91.13
2023-01-13T07:50:16.206Z,90.99
2023-01-13T07:51:16.249Z,90.06
2023-01-13T07:52:16.186Z,90.17
2023-01-13T07:53:16.176Z,89.97
2023-01-13T07:54:16.165Z,90.17
2023-01-13T07:55:16.141Z,89.97
2023-01-13T07:56:16.141Z,89.86
2023-01-13T07:57:16.140Z,89.97
2023-01-13T07:58:16.099Z,90.88
2023-01-13T07:59:16.121Z,90.58
2023-01-13T08:00:16.132Z,91.50
2023-01-13T08:01:16.184Z,92.93
2023-01-13T08:02:16.358Z,93.48
2023-01-13T08:03:16.057Z,94.14
2023-01-13T08:04:16.064Z,94.75
2023-01-13T08:05:16.047Z,95.47
2023-01-13T08:06:16.040Z,96.54
2023-01-13T08:07:16.007Z,96.84
2023-01-13T08:08:16.051Z,97.46
2023-01-13T08:09:15.983Z,97.81
2023-01-13T08:10:15.975Z,97.46
2023-01-13T08:11:15.973Z,97.40
2023-01-13T08:12:15.958Z,98.12
2023-01-13T08:13:15.948Z,98.43
2023-01-13T08:14:15.998Z,98.33
2023-01-13T08:15:15.920Z,98.33
2023-01-13T08:16:15.954Z,98.94
2023-01-13T08:17:15.897Z,98.94
2023-01-13T08:18:15.903Z,99.45
2023-01-13T08:19:15.897Z,99.55
2023-01-13T08:20:15.875Z,99.50
2023-01-13T08:21:15.888Z,99.25
2023-01-13T08:22:15.918Z,99.25
2023-01-13T08:23:15.873Z,99.25
2023-01-13T08:24:15.869Z,99.25
2023-01-13T08:25:15.835Z,98.94
2023-01-13T08:26:15.831Z,98.63
2023-01-13T08:27:15.811Z,98.90
2023-01-13T08:28:15.790Z,98.02
2023-01-13T08:29:15.792Z,97.87
2023-01-13T08:30:15.765Z,97.56
2023-01-13T08:31:15.907Z,97.87
2023-01-13T08:32:15.741Z,97.77
2023-01-13T08:33:15.852Z,97.25
2023-01-13T08:34:15.762Z,97.25
2023-01-13T08:35:15.729Z,96.33
2023-01-13T08:36:15.716Z,96.19
2023-01-13T08:37:15.742Z,96.29
2023-01-13T08:38:15.678Z,96.29
2023-01-13T08:39:15.696Z,96.49
2023-01-13T08:40:15.700Z,96.29
2023-01-13T08:41:15.792Z,95.98
2023-01-13T08:42:15.649Z,95.26
2023-01-13T08:43:15.660Z,95.57
2023-01-13T08:44:15.683Z,94.71
2023-01-13T08:45:15.640Z,94.81
2023-01-13T08:46:15.643Z,94.81
2023-01-13T08:47:15.615Z,94.81
2023-01-13T08:48:15.591Z,95.43
2023-01-13T08:49:15.611Z,94.60
2023-01-13T08:50:15.573Z,94.92
2023-01-13T08:51:15.549Z,95.12
2023-01-13T08:52:15.565Z,94.20
2023-01-13T08:53:15.539Z,94.15
2023-01-13T08:54:15.572Z,94.36
2023-01-13T08:55:15.612Z,94.06
2023-01-13T08:56:15.508Z,94.15
2023-01-13T08:57:15.508Z,93.85
2023-01-13T08:58:16.353Z,94.15
2023-01-13T08:59:15.507Z,93.95
2023-01-13T09:00:15.442Z,93.85
2023-01-13T09:01:15.608Z,93.85
2023-01-13T09:02:15.545Z,93.85
2023-01-13T09:03:15.462Z,94.06
2023-01-13T09:04:15.481Z,94.26
2023-01-13T09:05:17.677Z,94.06
2023-01-13T09:06:15.376Z,94.15
2023-01-13T09:07:15.369Z,93.74
2023-01-13T09:08:15.485Z,93.13
2023-01-13T09:09:15.388Z,93.44
2023-01-13T09:10:15.339Z,93.09
2023-01-13T09:11:15.346Z,92.58
2023-01-13T09:12:15.335Z,92.68
2023-01-13T09:13:15.320Z,91.46
2023-01-13T09:14:15.328Z,91.72
2023-01-13T09:15:15.317Z,91.72
2023-01-13T09:16:15.329Z,91.00
2023-01-13T09:17:15.287Z,90.80
2023-01-13T09:18:15.331Z,89.73
2023-01-13T09:19:15.265Z,89.08
2023-01-13T09:20:15.238Z,89.39
2023-01-13T09:21:15.232Z,89.28
2023-01-13T09:22:15.214Z,89.59
2023-01-13T09:23:15.215Z,88.88
2023-01-13T09:24:15.193Z,88.73
2023-01-13T09:25:15.293Z,88.43
2023-01-13T09:26:15.182Z,88.67
2023-01-13T09:27:15.162Z,87.76
2023-01-13T09:28:15.151Z,88.47
2023-01-13T09:29:15.149Z,88.37
2023-01-13T09:30:15.144Z,88.67
2023-01-13T09:31:15.177Z,88.10
2023-01-13T09:32:15.104Z,88.51
2023-01-13T09:33:15.087Z,89.32
2023-01-13T09:34:15.130Z,89.12
2023-01-13T09:35:15.069Z,88.92
2023-01-13T09:36:15.064Z,88.82
2023-01-13T09:37:15.041Z,89.12
2023-01-13T09:38:15.068Z,89.47
2023-01-13T09:39:15.232Z,89.47
2023-01-13T09:40:15.027Z,89.73
2023-01-13T09:41:15.017Z,89.78
2023-01-13T09:42:15.066Z,89.43
2023-01-13T09:43:14.973Z,88.92
2023-01-13T09:44:14.988Z,88.20
2023-01-13T09:45:14.972Z,90.19
2023-01-13T09:46:14.973Z,89.37
2023-01-13T09:47:15.012Z,89.78
2023-01-13T09:48:14.936Z,89.17
2023-01-13T09:49:14.920Z,89.17
2023-01-13T09:50:14.937Z,89.63
2023-01-13T09:51:14.976Z,89.37
2023-01-13T09:52:14.900Z,88.96
2023-01-13T09:53:14.873Z,89.67
2023-01-13T09:54:14.892Z,89.37
2023-01-13T09:55:14.856Z,90.19
2023-01-13T09:56:14.839Z,89.47
2023-01-13T09:57:14.861Z,89.37
2023-01-13T09:58:14.867Z,89.58
2023-01-13T09:59:14.857Z,89.47
2023-01-13T10:00:14.795Z,88.51
2023-01-13T10:01:14.845Z,88.31
2023-01-13T10:02:14.773Z,88.65
2023-01-13T10:03:14.872Z,88.51
2023-01-13T10:04:15.012Z,87.51
2023-01-13T10:05:14.777Z,86.08
2023-01-13T10:06:14.750Z,86.39
2023-01-13T10:07:14.723Z,85.80
2023-01-13T10:08:14.713Z,85.19
2023-01-13T10:09:14.703Z,85.68
2023-01-13T10:10:14.682Z,85.43
2023-01-13T10:11:14.746Z,83.72
2023-01-13T10:12:14.684Z,82.21
2023-01-13T10:13:14.676Z,81.71
2023-01-13T10:14:14.645Z,81.67
2023-01-13T10:15:14.649Z,81.33
2023-01-13T10:16:14.693Z,80.47
2023-01-13T10:17:14.640Z,79.77
2023-01-13T10:18:14.607Z,80.27
2023-01-13T10:19:14.598Z,80.17
2023-01-13T10:20:14.609Z,79.66
2023-01-13T10:21:14.591Z,79.93
2023-01-13T10:22:14.566Z,80.27
2023-01-13T10:23:14.577Z,80.27
2023-01-13T10:24:14.550Z,80.44
2023-01-13T10:25:14.525Z,78.78
2023-01-13T10:26:14.607Z,80.79
2023-01-13T10:27:14.546Z,81.20
2023-01-13T10:28:14.499Z,80.96
2023-01-13T10:29:14.597Z,80.65
2023-01-13T10:30:14.491Z,80.41
2023-01-13T10:31:14.503Z,79.36
2023-01-13T10:32:14.450Z,79.39
2023-01-13T10:33:14.455Z,80.21
2023-01-13T10:34:14.453Z,79.66
2023-01-13T10:35:14.414Z,78.41
2023-01-13T10:36:14.410Z,78.17
2023-01-13T10:37:14.405Z,78.06
2023-01-13T10:38:14.380Z,77.08
2023-01-13T10:39:14.392Z,78.22
2023-01-13T10:40:14.395Z,75.25
2023-01-13T10:41:14.372Z,74.71
2023-01-13T10:42:14.379Z,75.96
2023-01-13T10:43:14.348Z,76.37
2023-01-13T10:44:14.359Z,75.93
2023-01-13T10:45:14.325Z,75.70
2023-01-13T10:46:14.330Z,77.83
2023-01-13T10:47:14.294Z,79.02
2023-01-13T10:48:14.282Z,79.39
2023-01-13T10:49:14.277Z,80.76
2023-01-13T10:50:14.258Z,80.69
2023-01-13T10:51:14.256Z,82.26
2023-01-13T10:52:14.254Z,82.05
2023-01-13T10:53:14.246Z,82.90
2023-01-13T10:54:14.286Z,82.70
2023-01-13T10:55:14.235Z,82.29
2023-01-13T10:56:14.183Z,82.43
2023-01-13T10:57:14.200Z,82.33
2023-01-13T10:58:14.185Z,82.94
2023-01-13T10:59:14.217Z,82.23
2023-01-13T11:00:14.162Z,83.04
2023-01-13T11:01:14.231Z,82.23
2023-01-13T11:02:25.209Z,82.33
2023-01-13T11:03:15.115Z,82.27
2023-01-13T11:04:14.138Z,82.23
2023-01-13T11:05:14.261Z,82.64
2023-01-13T11:06:14.092Z,82.84
2023-01-13T11:07:14.082Z,82.03
2023-01-13T11:08:14.077Z,81.62
2023-01-13T11:09:14.074Z,81.62
2023-01-13T11:10:14.067Z,81.41
2023-01-13T11:11:14.046Z,80.40
2023-01-13T11:12:14.043Z,80.70
2023-01-13T11:13:14.008Z,80.91
2023-01-13T11:14:14.016Z,80.66
2023-01-13T11:15:13.993Z,82.40
2023-01-13T11:16:14.011Z,82.29
2023-01-13T11:17:13.988Z,80.87
2023-01-13T11:18:13.959Z,81.58
2023-01-13T11:19:13.999Z,82.23
2023-01-13T11:20:13.934Z,81.86
2023-01-13T11:21:13.929Z,82.88
2023-01-13T11:22:13.930Z,83.90
2023-01-13T11:23:13.900Z,85.57
2023-01-13T11:24:13.908Z,87.04
2023-01-13T11:25:13.875Z,87.76
2023-01-13T11:26:13.875Z,88.61
2023-01-13T11:27:13.860Z,87.90
2023-01-13T11:28:13.851Z,88.14
2023-01-13T11:29:13.868Z,88.85
2023-01-13T11:30:13.835Z,90.49
2023-01-13T11:31:13.868Z,91.92
2023-01-13T11:32:13.811Z,92.88
2023-01-13T11:33:13.832Z,89.86
2023-01-13T11:34:13.794Z,89.76
2023-01-13T11:35:13.767Z,89.35
2023-01-13T11:36:13.761Z,91.05
2023-01-13T11:37:13.750Z,89.86
2023-01-13T11:38:13.735Z,90.62
2023-01-13T11:39:13.743Z,90.66
2023-01-13T11:40:13.715Z,92.85
2023-01-13T11:41:13.732Z,92.91
2023-01-13T11:42:14.143Z,93.06
2023-01-13T11:43:13.696Z,93.20
2023-01-13T11:44:13.693Z,93.51
2023-01-13T11:45:13.690Z,93.51
2023-01-13T11:46:13.691Z,94.49
2023-01-13T11:47:13.641Z,93.47
2023-01-13T11:48:13.643Z,94.29
2023-01-13T11:49:13.656Z,94.33
2023-01-13T11:50:13.637Z,93.62
2023-01-13T11:51:13.833Z,93.51
2023-01-13T11:52:13.589Z,94.34
2023-01-13T11:53:13.581Z,93.50
2023-01-13T11:54:13.583Z,92.45
2023-01-13T11:55:13.555Z,88.32
2023-01-13T11:56:13.555Z,88.57
2023-01-13T11:57:13.582Z,89.18
2023-01-13T11:58:13.526Z,89.28
2023-01-13T11:59:13.605Z,88.98
2023-01-13T12:00:14.041Z,87.71
2023-01-13T12:01:13.564Z,88.69
2023-01-13T12:02:13.581Z,88.12
2023-01-13T12:03:13.518Z,87.04
2023-01-13T12:04:13.468Z,88.61
2023-01-13T12:05:13.485Z,90.00
2023-01-13T12:06:13.461Z,88.10
2023-01-13T12:07:13.421Z,86.26
2023-01-13T12:08:13.573Z,86.22
2023-01-13T12:09:13.756Z,87.35
2023-01-13T12:10:13.824Z,85.04
2023-01-13T12:11:13.394Z,83.92
2023-01-13T12:12:13.385Z,83.71
2023-01-13T12:13:13.362Z,83.75
2023-01-13T12:14:13.364Z,83.71
2023-01-13T12:15:13.423Z,84.42
2023-01-13T12:16:13.354Z,85.00
2023-01-13T12:17:13.444Z,82.86
2023-01-13T12:18:13.568Z,84.69
2023-01-13T12:19:13.306Z,82.37
2023-01-13T12:20:13.300Z,83.70
2023-01-13T12:21:13.293Z,83.82
2023-01-13T12:22:13.281Z,82.14
2023-01-13T12:23:13.249Z,79.49
2023-01-13T12:24:13.325Z,78.16
2023-01-13T12:25:13.249Z,75.65
2023-01-13T12:26:13.464Z,74.77
2023-01-13T12:27:13.213Z,74.54
2023-01-13T12:28:13.239Z,74.50
2023-01-13T12:29:13.192Z,74.50
2023-01-13T12:30:13.282Z,74.67
2023-01-13T12:31:13.215Z,74.57
2023-01-13T12:32:13.176Z,75.76
2023-01-13T12:33:13.557Z,76.44
2023-01-13T12:34:13.168Z,77.36
2023-01-13T12:35:13.273Z,79.16
2023-01-13T12:36:13.107Z,79.91
2023-01-13T12:36:56.179Z,80.73
2023-01-13T12:37:56.131Z,81.95
2023-01-13T12:38:56.137Z,80.66
2023-01-13T12:39:56.109Z,81.88
2023-01-13T12:40:56.140Z,82.23
2023-01-13T12:41:56.349Z,82.37
2023-01-13T12:42:56.081Z,83.09
2023-01-13T12:43:56.246Z,82.68
2023-01-13T12:44:56.056Z,83.63
2023-01-13T12:45:56.114Z,84.14
2023-01-13T12:46:56.070Z,84.86
2023-01-13T12:47:56.027Z,84.80
2023-01-13T12:48:56.559Z,85.61
2023-01-13T12:49:56.092Z,84.80
2023-01-13T12:50:57.036Z,83.81
2023-01-13T12:51:55.982Z,84.12